createdAt,value
2022-12-14T02:18:51.728Z,7.50
2022-12-14T02:21:43.064Z,7.60
2022-12-14T02:24:31.745Z,7.50
2022-12-14T02:27:10.155Z,7.00
2022-12-14T02:29:48.136Z,6.10
2022-12-14T02:32:14.756Z,4.70
2022-12-14T02:34:46.478Z,5.00
2022-12-14T02:37:28.055Z,4.50
2022-12-14T02:40:01.026Z,4.70
2022-12-14T02:42:49.058Z,5.10
2022-12-14T02:45:40.842Z,4.50
2022-12-14T02:48:29.340Z,4.80
2022-12-14T02:51:28.527Z,5.10
2022-12-14T02:54:00.292Z,4.60
2022-12-14T02:56:31.697Z,4.30
2022-12-14T02:58:58.314Z,4.60
2022-12-14T03:01:25.889Z,4.80
2022-12-14T03:03:52.915Z,5.90
2022-12-14T03:06:26.261Z,5.80
2022-12-14T03:09:01.050Z,5.90
2022-12-14T03:11:36.788Z,6.10
2022-12-14T03:14:06.920Z,5.80
2022-12-14T03:16:37.348Z,6.20
2022-12-14T03:19:37.751Z,7.00
2022-12-14T03:22:13.564Z,7.00
2022-12-14T03:24:44.774Z,6.70
2022-12-14T03:27:21.504Z,6.80
2022-12-14T03:29:50.404Z,6.40
2022-12-14T03:32:19.317Z,6.60
2022-12-14T03:34:57.562Z,7.20
2022-12-14T03:37:32.991Z,6.80
2022-12-14T03:39:59.620Z,7.40
2022-12-14T03:42:31.508Z,8.10
2022-12-14T03:45:05.094Z,7.60
2022-12-14T03:48:05.549Z,7.90
2022-12-14T03:50:38.230Z,6.90
2022-12-14T03:53:12.566Z,6.90
2022-12-14T03:55:48.979Z,6.50
2022-12-14T03:58:40.980Z,6.80
2022-12-14T04:01:13.046Z,6.90
2022-12-14T04:03:56.634Z,7.00
2022-12-14T04:06:34.357Z,7.00
2022-12-14T04:09:18.273Z,6.70
2022-12-14T04:12:10.030Z,8.10
2022-12-14T04:14:56.426Z,9.20
2022-12-14T04:17:47.322Z,7.50
2022-12-14T04:20:48.015Z,6.70
2022-12-14T04:23:37.871Z,6.60
2022-12-14T04:26:06.365Z,6.70
2022-12-14T04:29:00.837Z,6.30
2022-12-14T04:33:55.669Z,6.20
2022-12-14T04:36:24.139Z,6.90
2022-12-14T04:38:53.778Z,6.80
2022-12-14T04:41:22.353Z,6.90
2022-12-14T04:43:49.279Z,6.20
2022-12-14T04:46:17.997Z,6.50
2022-12-14T04:49:03.141Z,6.40
2022-12-14T04:51:46.560Z,6.40
2022-12-14T04:54:23.235Z,6.60
2022-12-14T04:56:52.231Z,6.80
2022-12-14T04:59:18.949Z,7.60
2022-12-14T05:01:57.466Z,8.10
2022-12-14T05:04:43.023Z,8.00
2022-12-14T05:07:09.628Z,8.20
2022-12-14T05:09:43.175Z,8.30
2022-12-14T05:12:15.860Z,10.20
2022-12-14T05:14:46.295Z,11.60
2022-12-14T05:17:12.974Z,11.10
2022-12-14T05:19:48.669Z,10.40
2022-12-14T05:22:15.970Z,9.20
2022-12-14T05:24:42.619Z,8.80
2022-12-14T05:27:09.384Z,6.80
2022-12-14T05:29:36.099Z,6.80
2022-12-14T05:32:02.875Z,6.90
2022-12-14T05:34:29.553Z,6.60
2022-12-14T05:36:56.413Z,6.50
2022-12-14T05:39:23.092Z,6.30
2022-12-14T05:41:49.775Z,6.20
2022-12-14T05:44:16.456Z,6.00
2022-12-14T05:46:43.059Z,6.00
2022-12-14T05:49:09.768Z,6.20
2022-12-14T05:51:36.427Z,6.20
2022-12-14T05:54:03.179Z,6.30
2022-12-14T05:56:29.792Z,5.80
2022-12-14T05:58:56.509Z,5.60
2022-12-14T06:01:23.171Z,5.70
2022-12-14T06:03:53.307Z,5.50
2022-12-14T06:06:19.955Z,5.70
2022-12-14T06:08:46.759Z,6.40
2022-12-14T06:11:15.224Z,6.30
2022-12-14T06:13:42.024Z,5.50
2022-12-14T06:16:10.461Z,5.60
2022-12-14T06:18:40.307Z,5.90
2022-12-14T06:21:07.028Z,5.70
2022-12-14T06:23:33.639Z,6.10
2022-12-14T11:17:41.195Z,7.40
2022-12-14T11:20:17.458Z,6.90
2022-12-14T11:22:57.938Z,7.30
2022-12-14T11:25:31.151Z,6.80
2022-12-14T11:28:30.094Z,6.70
2022-12-14T11:31:27.142Z,6.90
2022-12-14T11:33:55.038Z,6.70
2022-12-14T11:36:31.262Z,6.50
2022-12-14T11:39:18.438Z,7.40
2022-12-14T11:41:49.982Z,6.90
2022-12-14T11:44:16.595Z,8.30
2022-12-14T11:46:56.412Z,11.80
2022-12-14T11:49:34.175Z,9.80
2022-12-14T11:52:18.524Z,13.00
2022-12-14T11:55:02.285Z,11.70
2022-12-14T11:57:36.360Z,12.00
2022-12-14T12:00:08.320Z,8.50
2022-12-14T12:02:37.153Z,8.60
2022-12-14T12:05:08.288Z,15.10
2022-12-14T12:07:36.159Z,9.90
2022-12-14T12:10:05.913Z,7.40
2022-12-14T12:12:32.602Z,10.00
2022-12-14T12:14:59.287Z,12.70
2022-12-14T12:17:42.863Z,15.40
2022-12-14T12:20:23.860Z,11.60
2022-12-14T12:22:52.763Z,8.00
2022-12-14T12:25:32.197Z,6.30
2022-12-14T12:28:06.083Z,5.20
2022-12-14T12:30:34.262Z,5.10
2022-12-14T12:33:06.049Z,5.50
2022-12-14T12:35:37.742Z,5.30
2022-12-14T12:38:18.787Z,5.60
2022-12-14T12:40:57.745Z,5.50
2022-12-14T12:43:34.504Z,5.10
2022-12-14T12:46:05.545Z,5.70
2022-12-14T12:48:41.627Z,5.50
2022-12-14T12:51:12.337Z,5.60
2022-12-14T12:53:41.714Z,5.70
2022-12-14T12:56:11.005Z,5.10
2022-12-14T12:58:38.260Z,5.30
2022-12-14T13:01:16.126Z,5.50
2022-12-14T13:03:45.771Z,5.50
2022-12-14T13:06:22.176Z,5.60
2022-12-14T13:08:51.962Z,6.30
2022-12-14T13:11:26.544Z,8.10
2022-12-14T13:13:56.674Z,8.70
2022-12-14T13:16:39.272Z,7.40
2022-12-14T13:22:18.713Z,8.90
2022-12-14T13:24:45.721Z,11.00
2022-12-14T13:27:40.622Z,16.30
2022-12-14T13:30:38.547Z,51.10
2022-12-14T13:33:56.675Z,122.00
2022-12-14T13:37:00.821Z,100.70
2022-12-14T13:39:42.208Z,96.50
2022-12-14T13:42:15.333Z,60.90
2022-12-14T13:45:00.833Z,50.10
2022-12-14T13:47:30.006Z,28.00
2022-12-14T13:50:34.355Z,21.60
2022-12-14T13:52:46.708Z,17.20
2022-12-14T13:55:29.378Z,10.50
2022-12-14T13:58:28.236Z,9.00
2022-12-14T14:01:23.373Z,5.70
2022-12-14T14:04:11.021Z,6.20
2022-12-14T14:06:39.682Z,7.20
2022-12-14T14:09:32.835Z,8.90
2022-12-14T14:12:02.980Z,9.30
2022-12-14T14:14:41.414Z,9.30
2022-12-14T14:17:26.666Z,11.20
2022-12-14T14:19:55.109Z,11.30
2022-12-14T14:22:25.196Z,10.90
2022-12-14T14:25:12.553Z,9.00
2022-12-14T14:27:40.262Z,8.40
2022-12-14T14:30:22.185Z,7.40
2022-12-14T14:32:48.894Z,13.00
2022-12-14T14:35:35.729Z,14.20
2022-12-14T14:38:25.021Z,13.80
2022-12-14T14:43:42.572Z,12.30
2022-12-14T14:46:09.834Z,9.60
2022-12-14T14:48:41.985Z,10.70
2022-12-14T14:51:26.353Z,9.40
2022-12-14T18:56:02.851Z,23.70
2022-12-14T18:58:29.696Z,23.60
2022-12-14T19:00:58.126Z,23.60
2022-12-14T19:03:25.100Z,24.60
2022-12-14T19:05:52.293Z,25.20
2022-12-14T19:08:19.048Z,24.10
2022-12-14T19:10:48.140Z,23.60
2022-12-14T19:13:26.024Z,22.30
2022-12-14T19:15:57.713Z,23.30
2022-12-14T19:18:24.418Z,23.40
2022-12-14T19:20:51.036Z,22.40
2022-12-14T19:23:18.271Z,21.40
2022-12-14T19:25:45.390Z,21.50
2022-12-14T19:28:32.446Z,20.00
2022-12-14T19:30:59.099Z,20.10
2022-12-14T19:33:27.039Z,20.90
2022-12-14T19:35:54.019Z,21.00
2022-12-14T19:38:20.692Z,21.60
2022-12-14T19:41:04.299Z,21.90
2022-12-14T19:43:31.430Z,22.10
2022-12-14T19:45:58.475Z,21.70
2022-12-14T19:48:25.324Z,21.60
2022-12-14T19:50:52.010Z,21.80
2022-12-14T19:53:23.902Z,20.60
2022-12-14T19:55:53.839Z,20.70
2022-12-14T19:58:22.128Z,20.30
2022-12-14T20:00:49.953Z,21.30
2022-12-14T20:03:16.730Z,20.20
2022-12-14T20:06:09.846Z,19.80
2022-12-14T20:08:36.546Z,19.20
2022-12-14T20:11:07.947Z,19.30
2022-12-14T20:13:35.050Z,20.10
2022-12-14T20:16:02.185Z,19.30
2022-12-14T20:18:29.584Z,18.90
2022-12-14T20:21:03.831Z,19.50
2022-12-14T20:23:31.502Z,19.60
2022-12-14T20:26:02.451Z,19.70
2022-12-14T20:28:29.152Z,20.10
2022-12-14T20:30:55.877Z,19.40
2022-12-14T20:33:28.088Z,19.20
2022-12-14T20:35:56.847Z,19.50
2022-12-14T20:38:23.546Z,19.60
2022-12-14T20:40:50.182Z,19.60
2022-12-14T20:43:16.908Z,20.70
2022-12-14T20:45:46.673Z,21.40
2022-12-14T20:48:13.330Z,21.10
2022-12-14T20:50:41.728Z,20.70
2022-12-14T20:53:08.437Z,21.10
2022-12-14T20:55:35.196Z,21.90
2022-12-14T20:58:01.911Z,22.70
2022-12-14T21:00:28.834Z,22.90
2022-12-14T21:02:55.673Z,23.10
2022-12-14T21:05:22.511Z,22.90
2022-12-14T21:07:49.154Z,23.00
2022-12-14T21:10:15.893Z,20.60
2022-12-14T21:12:42.539Z,20.80
2022-12-14T21:15:09.322Z,21.50
2022-12-14T21:17:35.982Z,22.40
2022-12-14T21:20:02.902Z,21.10
2022-12-14T21:22:30.534Z,21.20
2022-12-14T21:25:06.119Z,20.40
2022-12-14T21:27:33.650Z,20.90
2022-12-14T21:30:00.645Z,20.30
2022-12-14T21:32:27.538Z,20.60
2022-12-14T21:34:54.223Z,21.40
2022-12-14T21:37:21.010Z,20.20
2022-12-14T21:39:54.342Z,20.30
2022-12-14T21:42:22.036Z,21.20
2022-12-14T21:44:49.574Z,20.80
2022-12-14T21:47:17.776Z,20.40
2022-12-14T21:49:44.854Z,20.00
2022-12-14T21:52:13.021Z,20.40
2022-12-14T21:54:39.969Z,19.40
2022-12-14T21:57:25.579Z,19.20
2022-12-14T21:59:52.198Z,17.60
2022-12-14T22:02:20.819Z,19.60
2022-12-14T22:04:47.709Z,19.50
2022-12-14T22:07:18.438Z,19.70
2022-12-14T22:09:49.599Z,19.20
2022-12-14T22:12:17.317Z,18.50
2022-12-14T22:14:43.927Z,19.00
2022-12-14T22:17:11.165Z,18.50
2022-12-14T22:19:56.576Z,18.50
2022-12-14T22:22:23.281Z,17.50
2022-12-14T22:24:51.046Z,17.50
2022-12-14T22:27:18.048Z,18.00
2022-12-14T22:29:44.737Z,19.00
2022-12-14T22:32:12.265Z,17.50
2022-12-14T22:34:39.183Z,17.50
2022-12-14T22:37:05.953Z,17.70
2022-12-14T22:39:32.660Z,16.90
2022-12-14T22:41:59.727Z,17.30
2022-12-14T22:44:26.479Z,16.60
2022-12-14T22:46:53.115Z,16.80
2022-12-14T22:49:20.327Z,17.00
2022-12-14T22:51:47.173Z,16.40
2022-12-14T22:54:32.015Z,16.00
2022-12-14T22:57:00.791Z,15.50
2022-12-14T22:59:42.975Z,15.00
2022-12-14T23:02:09.970Z,12.70
2022-12-14T23:04:37.425Z,12.70
2022-12-14T23:07:04.186Z,12.90
2022-12-14T23:09:49.547Z,13.50
2022-12-14T23:12:35.023Z,10.60
2022-12-14T23:15:20.399Z,11.80
2022-12-14T23:18:05.955Z,10.20
2022-12-14T23:20:51.283Z,9.60
2022-12-14T23:23:36.745Z,9.60
2022-12-14T23:26:22.147Z,8.80
2022-12-14T23:29:07.525Z,9.00
2022-12-14T23:31:52.861Z,8.50
2022-12-14T23:34:37.905Z,8.70
2022-12-14T23:37:23.229Z,9.30
2022-12-14T23:40:08.747Z,7.90
2022-12-14T23:42:54.119Z,8.50
2022-12-14T23:45:39.526Z,7.90
2022-12-14T23:48:24.913Z,8.10
2022-12-14T23:51:10.330Z,8.00
2022-12-14T23:53:55.734Z,6.90
2022-12-14T23:56:41.088Z,8.00
2022-12-14T23:59:31.832Z,7.70
